createdAt,value
2023-04-07T00:01:01.331Z,51.67
2023-04-07T00:31:01.342Z,52
2023-04-07T01:01:01.337Z,52.88
2023-04-07T01:31:01.335Z,53.22
2023-04-07T02:01:01.440Z,53.7
2023-04-07T02:31:01.364Z,54.29
2023-04-07T03:01:01.370Z,54.51
2023-04-07T03:31:01.428Z,54.99
2023-04-07T04:01:01.366Z,55.5
2023-04-07T04:31:01.382Z,55.87
2023-04-07T05:01:01.388Z,56.3
2023-04-07T05:31:01.368Z,56.4
2023-04-07T06:01:01.376Z,56.72
2023-04-07T06:31:01.436Z,56.41
2023-04-07T07:01:01.409Z,56.26
2023-04-07T07:31:01.399Z,55.52
2023-04-07T08:01:01.391Z,54.93
2023-04-07T08:31:01.543Z,54.14
2023-04-07T09:01:01.403Z,53.74
2023-04-07T09:31:01.425Z,53.35
2023-04-07T10:01:01.424Z,53.42
2023-04-07T10:31:01.454Z,52.51
2023-04-07T11:01:01.437Z,51.77
2023-04-07T11:31:01.484Z,50.79
2023-04-07T12:01:01.443Z,50.55
2023-04-07T12:31:01.453Z,49.19
2023-04-07T13:01:01.515Z,48.42
2023-04-07T13:31:01.485Z,47.22
2023-04-07T14:01:01.525Z,46.56
2023-04-07T14:31:01.507Z,44.43
2023-04-07T15:01:02.825Z,46.21
2023-04-07T15:31:01.541Z,46.04
2023-04-07T16:01:01.485Z,45.85
2023-04-07T16:31:01.481Z,46.14
2023-04-07T17:01:01.486Z,48.04
2023-04-07T17:31:01.551Z,48.39
2023-04-07T18:01:01.500Z,48.81
2023-04-07T18:31:01.574Z,49.45
2023-04-07T19:01:01.558Z,50.15
2023-04-07T19:31:01.496Z,51.06
2023-04-07T20:01:01.539Z,51.77
2023-04-07T20:31:01.604Z,52.63
2023-04-07T21:01:01.746Z,53.19
2023-04-07T21:31:01.600Z,53.88
2023-04-07T22:01:01.528Z,54.51
2023-04-07T22:31:01.576Z,54.79
2023-04-07T23:01:01.564Z,55.59
2023-04-07T23:31:01.574Z,55.9
